createdAt,value
2018-05-07T04:09:23.450Z,13.57
2018-05-07T04:09:48.952Z,13.56
2018-05-07T04:10:14.417Z,13.57
2018-05-07T04:10:40.019Z,13.5
2018-05-07T04:11:05.517Z,13.53
2018-05-07T04:11:30.948Z,13.53
2018-05-07T04:11:56.499Z,13.52
2018-05-07T04:12:21.920Z,13.57
2018-05-07T04:12:47.587Z,13.62
2018-05-07T04:13:13.182Z,13.59
2018-05-07T04:13:38.600Z,13.63
2018-05-07T04:14:04.043Z,13.59
2018-05-07T04:14:29.601Z,13.57
2018-05-07T04:14:54.973Z,13.62
2018-05-07T04:15:20.540Z,13.6
2018-05-07T04:15:45.999Z,13.62
2018-05-07T04:16:11.592Z,13.62
2018-05-07T04:16:37.068Z,13.5
2018-05-07T04:17:02.616Z,13.6
2018-05-07T04:17:28.149Z,13.53
2018-05-07T04:17:53.542Z,13.6
2018-05-07T04:18:19.012Z,13.62
2018-05-07T04:19:07.337Z,13.57
2018-05-07T04:19:32.824Z,13.6
2018-05-07T04:19:58.343Z,13.49
2018-05-07T04:20:23.799Z,13.56
2018-05-07T04:20:49.254Z,13.54
2018-05-07T04:21:14.771Z,13.49
2018-05-07T04:21:40.273Z,13.6
2018-05-07T04:22:05.744Z,13.57
2018-05-07T04:22:31.396Z,13.62
2018-05-07T04:22:56.887Z,13.52
2018-05-07T04:23:22.357Z,13.5
2018-05-07T04:23:47.973Z,13.56
2018-05-07T04:24:13.449Z,13.54
2018-05-07T04:24:38.952Z,13.49
2018-05-07T04:25:04.425Z,13.62
2018-05-07T04:25:29.927Z,13.54
2018-05-07T04:26:38.706Z,13.52
2018-05-07T04:27:04.148Z,13.49
2018-05-07T04:27:29.634Z,13.5
2018-05-07T04:27:55.160Z,13.5
2018-05-07T04:28:20.634Z,13.52
2018-05-07T04:28:46.114Z,13.5
2018-05-07T04:29:11.625Z,13.47
2018-05-07T04:29:37.114Z,13.62
2018-05-07T04:30:02.606Z,13.56
2018-05-07T04:30:28.050Z,13.5
2018-05-07T04:30:53.512Z,13.52
2018-05-07T04:31:18.964Z,13.5
2018-05-07T04:31:44.454Z,13.57
2018-05-07T04:32:10.009Z,13.56
2018-05-07T04:32:35.460Z,13.62
2018-05-07T04:33:01.047Z,13.54
2018-05-07T04:33:26.519Z,13.59
2018-05-07T04:33:52.010Z,13.56
2018-05-07T04:34:17.447Z,13.57
2018-05-07T04:34:42.897Z,13.49
2018-05-07T04:35:08.411Z,13.54
2018-05-07T04:35:33.887Z,13.57
2018-05-07T04:35:59.363Z,13.53
2018-05-07T04:36:24.842Z,13.63
2018-05-07T04:36:50.354Z,13.59
2018-05-07T04:37:15.927Z,13.53
2018-05-07T04:37:41.568Z,13.67
2018-05-07T04:38:07.143Z,13.62
2018-05-07T04:38:32.640Z,13.65
2018-05-07T04:38:58.199Z,13.53
2018-05-07T04:39:23.745Z,13.62
2018-05-07T04:39:49.310Z,13.54
2018-05-07T04:40:14.825Z,13.59
2018-05-07T04:40:40.321Z,13.7
2018-05-07T04:41:05.833Z,13.7
2018-05-07T04:41:31.331Z,13.57
2018-05-07T04:41:56.898Z,13.71
2018-05-07T04:42:22.374Z,13.71
2018-05-07T04:42:47.918Z,13.7
2018-05-07T04:43:13.504Z,13.72
2018-05-07T04:43:38.983Z,13.72
2018-05-07T04:44:04.528Z,13.75
2018-05-07T04:44:30.062Z,13.85
2018-05-07T04:44:55.631Z,13.77
2018-05-07T04:45:21.052Z,13.85
2018-05-07T04:45:46.524Z,13.75
2018-05-07T04:46:12.037Z,13.81
2018-05-07T04:46:37.601Z,13.87
2018-05-07T04:47:03.321Z,13.96
2018-05-07T04:47:28.866Z,13.93
2018-05-07T04:47:54.392Z,14.04
2018-05-07T04:48:19.977Z,13.97
2018-05-07T04:48:45.736Z,14.04
2018-05-07T04:49:11.253Z,14.12
2018-05-07T04:49:36.795Z,14.15
2018-05-07T04:50:02.365Z,14.18
2018-05-07T04:50:27.818Z,14.17
2018-05-07T04:50:53.333Z,14.28
2018-05-07T04:51:18.805Z,14.3
2018-05-07T04:51:44.330Z,14.33
2018-05-07T04:52:09.838Z,14.32
2018-05-07T04:52:35.364Z,14.33
2018-05-07T04:53:00.863Z,14.33
2018-05-07T04:53:26.350Z,14.43
2018-05-07T04:53:51.808Z,14.37
2018-05-07T04:54:17.295Z,14.44
2018-05-07T04:54:42.888Z,14.44
2018-05-07T04:55:08.435Z,14.41
2018-05-07T04:55:33.930Z,14.5
2018-05-07T04:55:59.407Z,14.5
2018-05-07T04:56:24.895Z,14.58
2018-05-07T04:56:50.432Z,14.65
2018-05-07T04:57:15.932Z,14.63
2018-05-07T04:57:41.404Z,14.81
2018-05-07T04:58:06.860Z,14.78
2018-05-07T04:58:32.369Z,14.88
2018-05-07T04:58:57.856Z,14.89
2018-05-07T04:59:23.328Z,15.03
2018-05-07T04:59:48.830Z,15.07
2018-05-07T05:00:14.312Z,15.09
2018-05-07T05:00:39.786Z,15.17
2018-05-07T05:01:28.127Z,15.22
2018-05-07T05:01:53.624Z,15.33
2018-05-07T05:02:19.098Z,15.33
2018-05-07T05:02:44.585Z,15.29
2018-05-07T05:03:10.193Z,15.35
2018-05-07T05:03:35.551Z,15.39
2018-05-07T05:04:01.073Z,15.43
2018-05-07T05:04:26.568Z,15.4
2018-05-07T05:04:52.065Z,15.39
2018-05-07T05:05:17.561Z,15.46
2018-05-07T05:05:43.059Z,15.46
2018-05-07T05:06:08.595Z,15.51
2018-05-07T05:06:34.078Z,15.47
2018-05-07T05:06:59.540Z,15.54
2018-05-07T05:07:25.071Z,15.49
2018-05-07T05:07:50.608Z,15.46
2018-05-07T05:08:16.084Z,15.51
2018-05-07T05:08:41.533Z,15.57
2018-05-07T05:09:07.009Z,15.57
2018-05-07T05:09:55.333Z,15.59
2018-05-07T05:10:20.812Z,15.58
2018-05-07T05:10:46.323Z,15.72
2018-05-07T05:11:11.767Z,15.65
2018-05-07T05:11:37.247Z,15.72
2018-05-07T05:12:02.709Z,15.7
2018-05-07T05:12:28.180Z,15.72
2018-05-07T05:12:53.672Z,15.76
2018-05-07T05:13:19.151Z,15.79
2018-05-07T05:13:44.633Z,15.88
2018-05-07T05:14:10.121Z,15.83
2018-05-07T05:14:35.617Z,15.88
2018-05-07T05:15:01.083Z,15.92
2018-05-07T05:15:26.565Z,15.86
2018-05-07T05:15:52.033Z,15.95
2018-05-07T05:16:17.498Z,16.01
2018-05-07T05:16:43.017Z,16.01
2018-05-07T05:17:08.443Z,16.02
2018-05-07T05:17:33.945Z,15.97
2018-05-07T05:17:59.443Z,16.05
2018-05-07T05:18:24.948Z,16.02
2018-05-07T05:18:50.483Z,16.04
2018-05-07T05:19:15.969Z,16.12
2018-05-07T05:19:41.466Z,16.01
2018-05-07T05:20:07.008Z,16.04
2018-05-07T05:20:32.491Z,16.02
2018-05-07T05:20:58.000Z,16.15
2018-05-07T05:21:23.504Z,16.12
2018-05-07T05:21:48.978Z,16.13
2018-05-07T05:22:14.522Z,16.13
2018-05-07T05:22:40.039Z,16.16
2018-05-07T05:23:05.576Z,16.24
2018-05-07T05:23:31.062Z,16.24
2018-05-07T05:23:56.528Z,16.31
2018-05-07T05:24:22.057Z,16.35
2018-05-07T05:24:47.576Z,16.36
2018-05-07T05:25:13.221Z,16.39
2018-05-07T05:25:38.727Z,16.51
2018-05-07T05:26:04.342Z,16.53
2018-05-07T05:26:29.908Z,16.57
2018-05-07T05:26:55.313Z,16.6
2018-05-07T05:27:20.883Z,16.57
2018-05-07T05:27:46.374Z,16.6
2018-05-07T05:28:11.982Z,16.61
2018-05-07T05:28:37.540Z,16.68
2018-05-07T05:29:03.087Z,16.78
2018-05-07T05:29:28.582Z,16.75
2018-05-07T05:29:54.070Z,16.78
2018-05-07T05:30:19.629Z,16.84
2018-05-07T05:30:45.158Z,16.91
2018-05-07T05:31:10.689Z,16.96
2018-05-07T05:31:36.218Z,17.01
2018-05-07T05:32:01.703Z,16.97
2018-05-07T05:32:27.270Z,17.02
2018-05-07T05:32:52.828Z,17.08
2018-05-07T05:33:18.275Z,17.12
2018-05-07T05:33:43.814Z,17.14
2018-05-07T05:34:09.307Z,17.22
2018-05-07T05:34:34.840Z,17.26
2018-05-07T05:35:00.327Z,17.36
2018-05-07T05:35:25.859Z,17.3
2018-05-07T05:35:51.388Z,17.38
2018-05-07T05:36:39.728Z,17.44
2018-05-07T05:37:05.214Z,17.44
2018-05-07T05:37:30.711Z,17.38
2018-05-07T05:37:56.168Z,17.51
2018-05-07T05:38:21.709Z,17.48
2018-05-07T05:38:47.270Z,17.49
2018-05-07T05:39:12.858Z,17.56
2018-05-07T05:39:38.367Z,17.68
2018-05-07T05:40:03.981Z,17.6
2018-05-07T05:40:29.539Z,17.74
2018-05-07T05:40:55.042Z,17.71
2018-05-07T05:41:20.576Z,17.71
2018-05-07T05:41:46.119Z,17.72
2018-05-07T05:42:11.694Z,17.83
2018-05-07T05:42:37.168Z,17.83
2018-05-07T05:43:02.743Z,17.82
2018-05-07T05:43:28.320Z,17.89
2018-05-07T05:43:53.774Z,17.87
2018-05-07T05:44:19.347Z,17.86
2018-05-07T05:44:44.850Z,17.9
2018-05-07T05:45:10.365Z,17.9
2018-05-07T05:45:35.966Z,17.82
2018-05-07T05:46:01.450Z,17.95
2018-05-07T05:47:10.270Z,18.08
2018-05-07T05:47:35.763Z,18.08
2018-05-07T05:48:01.266Z,18.13
2018-05-07T05:48:26.773Z,18.11
2018-05-07T05:48:52.280Z,18.1
2018-05-07T05:49:17.804Z,18.11
2018-05-07T05:49:43.274Z,18.08
2018-05-07T05:50:08.974Z,18.16
2018-05-07T05:50:34.358Z,18.16
2018-05-07T05:50:59.969Z,18.11
2018-05-07T05:51:25.532Z,18.07
2018-05-07T05:51:51.146Z,18.07
2018-05-07T05:52:16.692Z,18.18
2018-05-07T05:52:42.210Z,18.13
2018-05-07T05:53:07.737Z,18.01
2018-05-07T05:53:33.206Z,18.03
2018-05-07T05:53:58.731Z,17.98
2018-05-07T05:54:24.264Z,17.97
2018-05-07T05:54:49.782Z,17.92
2018-05-07T05:55:15.356Z,17.98
2018-05-07T05:55:41.030Z,17.92
2018-05-07T05:56:06.651Z,17.94
2018-05-07T05:56:32.118Z,17.92
2018-05-07T05:56:57.518Z,18.08
2018-05-07T05:57:22.958Z,18.04
2018-05-07T05:57:48.455Z,18.11
2018-05-07T05:58:13.926Z,18.08
2018-05-07T05:58:39.411Z,18.08
2018-05-07T05:59:04.941Z,18.13
2018-05-07T05:59:30.450Z,18.16
2018-05-07T05:59:55.979Z,18.15
2018-05-07T06:00:21.448Z,18.08
2018-05-07T06:00:46.910Z,18.1
2018-05-07T06:01:12.474Z,18.2
2018-05-07T06:01:38.202Z,18.19
2018-05-07T06:02:03.810Z,18.25
2018-05-07T06:02:29.519Z,18.15
2018-05-07T06:02:54.977Z,18.1
2018-05-07T06:03:20.426Z,18.07
2018-05-07T06:03:45.967Z,18.15
2018-05-07T06:04:11.480Z,18.15
2018-05-07T06:04:36.996Z,18.07
2018-05-07T06:05:02.480Z,18.01
2018-05-07T06:06:00.550Z,17.97
2018-05-07T06:06:26.052Z,17.9
2018-05-07T06:06:51.531Z,17.94
2018-05-07T06:07:17.031Z,17.89
2018-05-07T06:07:42.529Z,17.89
2018-05-07T06:08:08.117Z,17.94
2018-05-07T06:08:33.614Z,17.92
2018-05-07T06:08:59.184Z,18
2018-05-07T06:09:24.663Z,18.04
2018-05-07T06:09:50.151Z,18.11
2018-05-07T06:10:15.661Z,18.1
2018-05-07T06:10:41.142Z,18.18
2018-05-07T06:11:06.668Z,18.2
2018-05-07T06:11:32.183Z,18.25
2018-05-07T06:11:57.736Z,18.37
2018-05-07T06:12:23.229Z,18.34
2018-05-07T06:12:48.722Z,18.52
2018-05-07T06:13:14.215Z,18.44
2018-05-07T06:13:39.745Z,18.58
2018-05-07T06:14:05.227Z,18.55
2018-05-07T06:14:30.869Z,18.49
2018-05-07T06:14:56.422Z,18.62
2018-05-07T06:15:21.787Z,18.58
2018-05-07T06:15:47.297Z,18.6
2018-05-07T06:16:12.773Z,18.65
2018-05-07T06:16:38.302Z,18.66
2018-05-07T06:17:03.803Z,18.7
2018-05-07T06:17:29.354Z,18.62
2018-05-07T06:17:54.905Z,18.62
2018-05-07T06:18:20.443Z,18.58
2018-05-07T06:18:45.954Z,18.65
2018-05-07T06:19:11.517Z,18.62
2018-05-07T06:19:36.996Z,18.58
2018-05-07T06:20:02.515Z,18.66
2018-05-07T06:20:28.020Z,18.6
2018-05-07T06:20:53.513Z,18.55
2018-05-07T06:21:19.115Z,18.6
2018-05-07T06:21:44.569Z,18.53
2018-05-07T06:22:10.034Z,18.63
2018-05-07T06:22:35.633Z,18.59
2018-05-07T06:23:01.146Z,18.66
2018-05-07T06:23:26.957Z,18.74
2018-05-07T06:23:52.505Z,18.71
2018-05-07T06:24:17.986Z,18.88
2018-05-07T06:24:43.457Z,18.83
2018-05-07T06:25:09.127Z,18.95
2018-05-07T06:25:34.663Z,18.98
2018-05-07T06:26:00.332Z,18.9
2018-05-07T06:26:26.039Z,18.95
2018-05-07T06:26:51.394Z,18.84
2018-05-07T06:27:17.034Z,18.99
2018-05-07T06:27:42.437Z,18.96
2018-05-07T06:28:08.123Z,18.88
2018-05-07T06:28:33.703Z,19
2018-05-07T06:28:59.714Z,19.02
2018-05-07T06:29:26.181Z,19.11
2018-05-07T06:29:51.518Z,19.18
2018-05-07T06:30:17.081Z,19.18
2018-05-07T06:30:42.563Z,19.18
2018-05-07T06:31:08.085Z,19.19
2018-05-07T06:31:33.625Z,19.18
2018-05-07T06:31:59.146Z,19.21
2018-05-07T06:32:24.694Z,19.12
2018-05-07T06:32:50.218Z,19.26
2018-05-07T06:33:15.916Z,19.33
2018-05-07T06:33:41.534Z,19.41
2018-05-07T06:34:07.085Z,19.31
2018-05-07T06:34:32.595Z,19.36
2018-05-07T06:34:58.082Z,19.36
2018-05-07T06:35:23.649Z,19.41
2018-05-07T06:35:49.211Z,19.39
2018-05-07T06:36:14.715Z,19.44
2018-05-07T06:36:40.479Z,19.52
2018-05-07T06:37:05.986Z,19.52
2018-05-07T06:37:31.820Z,19.62
2018-05-07T06:37:57.287Z,19.62
2018-05-07T06:38:22.885Z,19.64
2018-05-07T06:38:48.442Z,19.66
2018-05-07T06:39:14.009Z,19.71
2018-05-07T06:39:39.779Z,19.64
2018-05-07T06:40:05.445Z,19.63
2018-05-07T06:40:31.104Z,19.82
2018-05-07T06:40:56.668Z,19.81
2018-05-07T06:41:22.374Z,19.71
2018-05-07T06:41:48.026Z,19.64
2018-05-07T06:42:13.712Z,19.64
2018-05-07T06:42:39.974Z,19.62
2018-05-07T06:43:05.265Z,19.66
2018-05-07T06:43:31.018Z,19.71
2018-05-07T06:43:56.686Z,19.66
2018-05-07T06:44:22.237Z,19.62
2018-05-07T06:44:47.736Z,19.54
2018-05-07T06:45:13.269Z,19.56
2018-05-07T06:45:38.867Z,19.59
2018-05-07T06:46:04.568Z,19.63
2018-05-07T06:46:29.955Z,19.63
2018-05-07T06:46:55.557Z,19.64
2018-05-07T06:47:21.072Z,19.58
2018-05-07T06:47:46.663Z,19.55
2018-05-07T06:48:12.243Z,19.63
2018-05-07T06:48:37.824Z,19.55
2018-05-07T06:49:47.770Z,19.64
2018-05-07T06:50:14.238Z,19.64
2018-05-07T06:50:40.221Z,19.74
2018-05-07T06:51:05.632Z,19.76
2018-05-07T06:51:31.128Z,19.81
2018-05-07T06:51:56.797Z,19.77
2018-05-07T06:52:22.418Z,19.88
2018-05-07T06:52:48.046Z,19.91
2018-05-07T06:53:13.533Z,19.95
2018-05-07T06:53:39.054Z,19.91
2018-05-07T06:54:04.579Z,19.92
2018-05-07T06:54:30.120Z,19.92
2018-05-07T06:54:55.672Z,19.88
2018-05-07T06:55:21.200Z,19.91
2018-05-07T06:55:46.743Z,19.92
2018-05-07T06:56:12.613Z,19.89
2018-05-07T06:56:38.025Z,19.85
2018-05-07T06:57:03.510Z,19.81
2018-05-07T06:57:29.023Z,19.82
2018-05-07T06:57:54.539Z,19.84
2018-05-07T06:58:20.151Z,19.81
2018-05-07T06:58:45.679Z,19.84
2018-05-07T06:59:11.247Z,19.81
2018-05-07T06:59:36.810Z,19.79
2018-05-07T07:00:02.594Z,19.89
2018-05-07T07:00:27.898Z,19.92
2018-05-07T07:00:53.608Z,20
2018-05-07T07:01:19.135Z,20.06
2018-05-07T07:01:44.644Z,19.99
2018-05-07T07:02:10.284Z,20.02
2018-05-07T07:02:35.782Z,20.02
2018-05-07T07:03:01.361Z,19.99
2018-05-07T07:03:26.747Z,20.03
2018-05-07T07:03:52.198Z,19.99
2018-05-07T07:04:17.827Z,19.95
2018-05-07T07:04:43.555Z,19.95
2018-05-07T07:05:09.053Z,20
2018-05-07T07:05:34.671Z,20.07
2018-05-07T07:06:00.311Z,20.06
2018-05-07T07:06:25.897Z,20.11
2018-05-07T07:06:51.375Z,20.19
2018-05-07T07:07:16.986Z,20.21
2018-05-07T07:07:42.470Z,20.21
2018-05-07T07:08:08.159Z,20.22
2018-05-07T07:08:33.923Z,20.25
2018-05-07T07:08:59.365Z,20.28
2018-05-07T07:09:24.859Z,20.34
2018-05-07T07:09:50.378Z,20.41
2018-05-07T07:10:15.973Z,20.52
2018-05-07T07:10:41.453Z,20.55
2018-05-07T07:11:06.939Z,20.58
2018-05-07T07:11:32.461Z,20.59
2018-05-07T07:11:58.045Z,20.63
2018-05-07T07:12:23.721Z,20.63
2018-05-07T07:12:49.275Z,20.63
2018-05-07T07:13:15.014Z,20.62
2018-05-07T07:13:40.446Z,20.6
2018-05-07T07:14:05.974Z,20.66
2018-05-07T07:14:31.555Z,20.58
2018-05-07T07:14:57.295Z,20.6
2018-05-07T07:15:22.822Z,20.62
2018-05-07T07:15:48.380Z,20.58
2018-05-07T07:16:13.894Z,20.59
2018-05-07T07:16:39.487Z,20.62
2018-05-07T07:17:05.039Z,20.59
2018-05-07T07:17:30.581Z,20.62
2018-05-07T07:17:56.161Z,20.58
2018-05-07T07:18:21.836Z,20.58
2018-05-07T07:18:47.351Z,20.63
2018-05-07T07:19:13.081Z,20.6
2018-05-07T07:19:38.951Z,20.63
2018-05-07T07:20:04.680Z,20.67
2018-05-07T07:20:30.368Z,20.67
2018-05-07T07:20:55.890Z,20.74
2018-05-07T07:21:21.461Z,20.69
2018-05-07T07:21:47.142Z,20.72
2018-05-07T07:22:12.697Z,20.81
2018-05-07T07:22:38.173Z,20.8
2018-05-07T07:23:03.713Z,20.92
2018-05-07T07:23:29.284Z,20.99
2018-05-07T07:23:54.859Z,20.97
2018-05-07T07:24:20.413Z,21
2018-05-07T07:24:46.042Z,21.11
2018-05-07T07:25:11.565Z,21.12
2018-05-07T07:25:37.106Z,21.05
2018-05-07T07:26:02.722Z,21.22
2018-05-07T07:26:28.368Z,21.27
2018-05-07T07:26:53.908Z,21.29
2018-05-07T07:27:19.515Z,21.35
2018-05-07T07:27:45.061Z,21.32
2018-05-07T07:28:10.750Z,21.25
2018-05-07T07:28:36.287Z,21.35
2018-05-07T07:29:01.777Z,21.35
2018-05-07T07:29:27.335Z,21.35
2018-05-07T07:29:52.963Z,21.46
2018-05-07T07:30:18.493Z,21.33
2018-05-07T07:30:44.100Z,21.42
2018-05-07T07:31:09.610Z,21.46
2018-05-07T07:31:35.220Z,21.43
2018-05-07T07:32:00.856Z,21.39
2018-05-07T07:32:26.406Z,21.52
2018-05-07T07:32:51.944Z,21.54
2018-05-07T07:33:17.540Z,21.51
2018-05-07T07:33:43.114Z,21.51
2018-05-07T07:34:08.659Z,21.57
2018-05-07T07:34:34.358Z,21.48
2018-05-07T07:35:00.055Z,21.45
2018-05-07T07:35:25.694Z,21.42
2018-05-07T07:35:51.302Z,21.48
2018-05-07T07:36:16.842Z,21.45
2018-05-07T07:36:42.360Z,21.45
2018-05-07T07:37:08.104Z,21.4
2018-05-07T07:37:33.587Z,21.37
2018-05-07T07:37:59.242Z,21.45
2018-05-07T07:38:24.830Z,21.46
2018-05-07T07:38:50.380Z,21.43
2018-05-07T07:39:16.061Z,21.48
2018-05-07T07:39:41.701Z,21.42
2018-05-07T07:40:07.365Z,21.42
2018-05-07T07:40:32.977Z,21.45
2018-05-07T07:40:58.564Z,21.48
2018-05-07T07:41:24.157Z,21.52
2018-05-07T07:41:49.752Z,21.52
2018-05-07T07:42:15.370Z,21.45
2018-05-07T07:42:40.933Z,21.54
2018-05-07T07:43:06.517Z,21.46
2018-05-07T07:43:32.050Z,21.52
2018-05-07T07:43:57.672Z,21.5
2018-05-07T07:44:23.242Z,21.46
2018-05-07T07:44:48.843Z,21.5
2018-05-07T07:45:14.393Z,21.46
2018-05-07T07:45:39.970Z,21.33
2018-05-07T07:46:05.589Z,21.32
2018-05-07T07:46:31.106Z,21.4
2018-05-07T07:46:57.508Z,21.37
2018-05-07T07:47:23.280Z,21.36
2018-05-07T07:47:49.163Z,21.32
2018-05-07T07:48:14.700Z,21.25
2018-05-07T07:48:40.303Z,21.29
2018-05-07T07:49:05.846Z,21.37
2018-05-07T07:49:31.424Z,21.43
2018-05-07T07:49:57.049Z,21.51
2018-05-07T07:50:22.579Z,21.48
2018-05-07T07:50:48.266Z,21.54
2018-05-07T07:51:14.303Z,21.6
2018-05-07T07:51:42.152Z,21.57
2018-05-07T07:52:08.753Z,21.57
2018-05-07T07:52:34.411Z,21.62
2018-05-07T07:52:59.991Z,21.64
2018-05-07T07:53:25.624Z,21.58
2018-05-07T07:53:51.287Z,21.52
2018-05-07T07:54:17.554Z,21.54
2018-05-07T07:54:45.567Z,21.52
2018-05-07T07:55:12.783Z,21.55
2018-05-07T07:55:40.072Z,21.62
2018-05-07T07:56:07.437Z,21.61
2018-05-07T07:56:33.678Z,21.7
2018-05-07T07:56:59.808Z,21.7
2018-05-07T07:57:27.390Z,21.72
2018-05-07T07:57:53.499Z,21.75
2018-05-07T07:58:19.923Z,21.7
2018-05-07T07:58:45.888Z,21.73
2018-05-07T07:59:11.591Z,21.72
2018-05-07T07:59:37.123Z,21.69
2018-05-07T08:00:02.680Z,21.61
2018-05-07T08:00:28.221Z,21.66
2018-05-07T08:01:26.993Z,21.69
2018-05-07T08:01:53.875Z,21.69
2018-05-07T08:02:20.527Z,21.75
2018-05-07T08:02:46.071Z,21.82
2018-05-07T08:03:11.629Z,21.77
2018-05-07T08:03:37.528Z,21.75
2018-05-07T08:04:03.263Z,21.76
2018-05-07T08:04:29.660Z,21.85
2018-05-07T08:04:55.222Z,21.83
2018-05-07T08:05:20.791Z,21.82
2018-05-07T08:05:46.277Z,21.83
2018-05-07T08:06:11.884Z,21.82
2018-05-07T08:06:37.381Z,21.93
2018-05-07T08:07:02.997Z,22.06
2018-05-07T08:07:28.434Z,22.04
2018-05-07T08:07:53.976Z,21.99
2018-05-07T08:08:19.524Z,22.1
2018-05-07T08:08:45.001Z,22.02
2018-05-07T08:09:10.584Z,22
2018-05-07T08:09:36.167Z,22.04
2018-05-07T08:10:01.790Z,21.95
2018-05-07T08:10:27.484Z,22.07
2018-05-07T08:10:53.055Z,22.02
2018-05-07T08:11:18.620Z,22.04
2018-05-07T08:11:44.167Z,22.04
2018-05-07T08:12:09.795Z,22.06
2018-05-07T08:12:35.398Z,22.04
2018-05-07T08:13:00.908Z,22.17
2018-05-07T08:13:26.521Z,22.2
2018-05-07T08:13:52.153Z,22.25
2018-05-07T08:14:18.149Z,22.32
2018-05-07T08:14:43.853Z,22.33
2018-05-07T08:15:09.722Z,22.28
2018-05-07T08:15:35.114Z,22.3
2018-05-07T08:16:01.001Z,22.39
2018-05-07T08:16:27.409Z,22.45
2018-05-07T08:16:53.120Z,22.41
2018-05-07T08:17:19.667Z,22.44
2018-05-07T08:17:46.516Z,22.47
2018-05-07T08:18:12.201Z,22.51
2018-05-07T08:18:38.604Z,22.45
2018-05-07T08:19:04.830Z,22.44
2018-05-07T08:19:30.996Z,22.45
2018-05-07T08:19:56.546Z,22.43
2018-05-07T08:20:22.457Z,22.43
2018-05-07T08:20:48.046Z,22.39
2018-05-07T08:21:14.945Z,22.51
2018-05-07T08:21:40.535Z,22.59
2018-05-07T08:22:06.010Z,22.57
2018-05-07T08:22:31.565Z,22.55
2018-05-07T08:22:57.275Z,22.69
2018-05-07T08:23:22.643Z,22.7
2018-05-07T08:23:48.282Z,22.72
2018-05-07T08:24:14.023Z,22.66
2018-05-07T08:24:39.654Z,22.75
2018-05-07T08:25:05.287Z,22.76
2018-05-07T08:25:30.962Z,22.88
2018-05-07T08:25:56.574Z,22.87
2018-05-07T08:26:22.220Z,22.84
2018-05-07T08:26:47.846Z,22.87
2018-05-07T08:27:13.449Z,22.84
2018-05-07T08:27:39.028Z,22.83
2018-05-07T08:28:04.481Z,22.84
2018-05-07T08:28:30.027Z,22.78
2018-05-07T08:28:55.680Z,22.76
2018-05-07T08:29:21.176Z,22.8
2018-05-07T08:29:46.879Z,22.88
2018-05-07T08:30:12.482Z,22.78
2018-05-07T08:30:38.129Z,22.76
2018-05-07T08:31:03.753Z,22.85
2018-05-07T08:31:29.616Z,22.84
2018-05-07T08:31:55.108Z,22.75
2018-05-07T08:32:20.667Z,22.76
2018-05-07T08:32:47.073Z,22.68
2018-05-07T08:33:12.645Z,22.7
2018-05-07T08:33:38.269Z,22.68
2018-05-07T08:34:03.929Z,22.57
2018-05-07T08:34:29.680Z,22.48
2018-05-07T08:34:55.518Z,22.57
2018-05-07T08:35:21.224Z,22.5
2018-05-07T08:35:46.860Z,22.45
2018-05-07T08:36:12.515Z,22.51
2018-05-07T08:36:39.128Z,22.63
2018-05-07T08:37:05.376Z,22.69
2018-05-07T08:37:31.283Z,22.68
2018-05-07T08:37:57.180Z,22.7
2018-05-07T08:38:23.262Z,22.72
2018-05-07T08:38:49.413Z,22.78
2018-05-07T08:39:15.036Z,22.73
2018-05-07T08:39:40.643Z,22.72
2018-05-07T08:40:06.197Z,22.6
2018-05-07T08:40:31.820Z,22.68
2018-05-07T08:40:57.777Z,22.76
2018-05-07T08:41:24.350Z,22.69
2018-05-07T08:41:49.985Z,22.68
2018-05-07T08:42:15.774Z,22.57
2018-05-07T08:42:41.236Z,22.63
2018-05-07T08:43:07.175Z,22.63
2018-05-07T08:43:32.887Z,22.6
2018-05-07T08:43:58.417Z,22.7
2018-05-07T08:44:24.032Z,22.57
2018-05-07T08:44:49.552Z,22.68
2018-05-07T08:45:15.132Z,22.59
2018-05-07T08:45:40.738Z,22.65
2018-05-07T08:46:06.444Z,22.53
2018-05-07T08:46:32.045Z,22.53
2018-05-07T08:46:57.590Z,22.62
2018-05-07T08:47:23.164Z,22.62
2018-05-07T08:47:48.780Z,22.66
2018-05-07T08:48:14.337Z,22.72
2018-05-07T08:48:39.935Z,22.73
2018-05-07T08:49:05.450Z,22.69
2018-05-07T08:49:31.044Z,22.8
2018-05-07T08:49:56.649Z,22.75
2018-05-07T08:50:22.336Z,22.78
2018-05-07T08:50:47.953Z,22.81
2018-05-07T08:51:13.561Z,22.91
2018-05-07T08:52:22.375Z,22.72
2018-05-07T08:52:47.904Z,22.78
2018-05-07T08:53:13.494Z,22.78
2018-05-07T08:53:38.867Z,22.84
2018-05-07T08:54:04.487Z,22.88
2018-05-07T08:54:30.005Z,22.84
2018-05-07T08:54:55.570Z,22.84
2018-05-07T08:55:21.133Z,22.93
2018-05-07T08:55:46.667Z,22.94
2018-05-07T08:56:12.221Z,22.99
2018-05-07T08:56:37.793Z,22.91
2018-05-07T08:57:03.466Z,22.91
2018-05-07T08:57:29.067Z,23
2018-05-07T08:57:54.725Z,22.87
2018-05-07T08:58:20.317Z,22.87
2018-05-07T08:58:45.966Z,22.93
2018-05-07T08:59:11.631Z,22.94
2018-05-07T08:59:37.315Z,23
2018-05-07T09:00:02.890Z,23.03
2018-05-07T09:00:28.401Z,23.06
2018-05-07T09:00:54.019Z,23.05
2018-05-07T09:01:19.593Z,23.03
2018-05-07T09:01:45.159Z,23.06
2018-05-07T09:02:10.826Z,23.1
2018-05-07T09:02:36.303Z,23.17
2018-05-07T09:03:02.013Z,23.21
2018-05-07T09:03:27.569Z,23.27
2018-05-07T09:03:53.095Z,23.25
2018-05-07T09:04:18.664Z,23.21
2018-05-07T09:04:44.220Z,23.25
2018-05-07T09:05:09.867Z,23.25
2018-05-07T09:05:35.434Z,23.28
2018-05-07T09:06:01.019Z,23.31
2018-05-07T09:06:26.611Z,23.43
2018-05-07T09:06:52.194Z,23.4
2018-05-07T09:07:17.728Z,23.34
2018-05-07T09:07:43.339Z,23.41
2018-05-07T09:08:08.988Z,23.43
2018-05-07T09:08:34.588Z,23.5
2018-05-07T09:09:00.099Z,23.46
2018-05-07T09:09:25.691Z,23.4
2018-05-07T09:09:51.264Z,23.43
2018-05-07T09:10:16.778Z,23.46
2018-05-07T09:10:42.330Z,23.46
2018-05-07T09:11:07.886Z,23.47
2018-05-07T09:11:33.494Z,23.4
2018-05-07T09:11:59.146Z,23.46
2018-05-07T09:12:24.631Z,23.5
2018-05-07T09:12:50.326Z,23.41
2018-05-07T09:13:15.927Z,23.46
2018-05-07T09:13:41.431Z,23.47
2018-05-07T09:14:06.967Z,23.41
2018-05-07T09:14:32.522Z,23.43
2018-05-07T09:14:58.260Z,23.46
2018-05-07T09:15:24.155Z,23.46
2018-05-07T09:15:49.748Z,23.48
2018-05-07T09:16:15.316Z,23.58
2018-05-07T09:16:40.790Z,23.58
2018-05-07T09:17:06.316Z,23.58
2018-05-07T09:17:31.856Z,23.66
2018-05-07T09:17:57.378Z,23.66
2018-05-07T09:18:22.945Z,23.68
2018-05-07T09:18:48.494Z,23.68
2018-05-07T09:19:14.027Z,23.69
2018-05-07T09:19:39.557Z,23.68
2018-05-07T09:20:05.148Z,23.69
2018-05-07T09:20:30.732Z,23.59
2018-05-07T09:20:56.344Z,23.54
2018-05-07T09:21:21.859Z,23.48
2018-05-07T09:21:47.383Z,23.51
2018-05-07T09:22:12.984Z,23.47
2018-05-07T09:22:38.538Z,23.51
2018-05-07T09:23:04.133Z,23.44
2018-05-07T09:23:29.692Z,23.46
2018-05-07T09:23:55.254Z,23.44
2018-05-07T09:24:20.832Z,23.5
2018-05-07T09:24:46.494Z,23.56
2018-05-07T09:25:11.979Z,23.59
2018-05-07T09:25:37.628Z,23.63
2018-05-07T09:26:03.151Z,23.63
2018-05-07T09:26:28.675Z,23.65
2018-05-07T09:26:54.246Z,23.71
2018-05-07T09:27:19.774Z,23.69
2018-05-07T09:27:45.353Z,23.69
2018-05-07T09:28:10.908Z,23.65
2018-05-07T09:28:36.424Z,23.61
2018-05-07T09:29:02.017Z,23.68
2018-05-07T09:29:27.543Z,23.65
2018-05-07T09:29:53.054Z,23.65
2018-05-07T09:30:18.612Z,23.66
2018-05-07T09:30:44.141Z,23.66
2018-05-07T09:31:09.691Z,23.61
2018-05-07T09:31:35.300Z,23.71
2018-05-07T09:32:00.829Z,23.76
2018-05-07T09:32:26.456Z,23.77
2018-05-07T09:32:51.995Z,23.78
2018-05-07T09:33:17.730Z,23.87
2018-05-07T09:33:43.316Z,23.83
2018-05-07T09:34:08.925Z,23.76
2018-05-07T09:34:34.561Z,23.76
2018-05-07T09:35:00.106Z,23.78
2018-05-07T09:35:25.811Z,23.74
2018-05-07T09:35:51.394Z,23.65
2018-05-07T09:36:17.027Z,23.68
2018-05-07T09:36:42.610Z,23.71
2018-05-07T09:37:08.210Z,23.74
2018-05-07T09:37:33.831Z,23.76
2018-05-07T09:37:59.442Z,23.76
2018-05-07T09:38:24.945Z,23.78
2018-05-07T09:38:50.439Z,23.87
2018-05-07T09:39:16.004Z,23.81
2018-05-07T09:39:41.642Z,23.86
2018-05-07T09:40:07.145Z,23.92
2018-05-07T09:40:32.713Z,23.91
2018-05-07T09:40:58.336Z,23.86
2018-05-07T09:41:23.943Z,23.87
2018-05-07T09:41:49.537Z,23.87
2018-05-07T09:42:15.116Z,23.86
2018-05-07T09:42:40.721Z,23.84
2018-05-07T09:43:06.354Z,23.88
2018-05-07T09:43:32.314Z,23.8
2018-05-07T09:43:58.134Z,23.76
2018-05-07T09:44:23.654Z,23.78
2018-05-07T09:44:49.338Z,23.77
2018-05-07T09:45:15.043Z,23.73
2018-05-07T09:45:40.630Z,23.8